Main page
METAR-TAF:

METAR-TAF

Airports :

Yakutsk, Russia

Yakutsk Airport

latitude: 62-01N, longitude: 129-43E, elevation: 103 m

Current weather observation

The report was made 24 minutes ago, at 13:30 UTC
Wind 4 kt from the Northwest
Temperature -6°C
Humidity 68%
Pressure 1019 hPa
Visibility 10 km or more
no clouds below 1500 m and no cumulonimbus

METAR: UEEE 281330Z 31002MPS CAVOK M06/M11 Q1019 R23L/09//55 NOSIG RMK QFE756

Time: 22:54 (13:54 UTC)

Forecast

The report was made 2 hours and 54 minutes ago, at 11:00 UTC
Forecast valid from 28 at 12 UTC to 29 at 18 UTC
Wind 6 kt from the Northwest with gusts up to 16 kt
Visibility 10 km or more
Scattered clouds at a height of 3000 ft, Cumulonimbus.
Overcast at a height of 7000 ft

TAF: UEEE 281100Z 2812/2918 32003G08MPS 9999 SCT030CB OVC070

Weather observations and forecasts of more than 4000 airports (METAR and TAF reports).

The available stations are represented by yellow and red dots on the map.

Hover mouse over dot to see the name of the station.

Then click to see weather observations and forecasts.

To change the map : click on the green buttons with a black cross to zoom in, on the green button with a dash to zoom out, or on the green arrows for adjacent maps.


METAR-TAF: